Aérodrome :
LOGIN :

Register | Disclaimer

   EN    FR    IT 

 

















- Airport Elevation : 512 ft
- IATA code : URO
- Download approach charts


LFOP - Rouen Vallée de Seine

CURRENT METAR :
  • 222200Z AUTO 30009KT 9999 BKN038 13/07 Q1015

EXPIRED METARs :
  • 222130Z AUTO 31009KT 280V340 CAVOK 14/10 Q1014
  • 222100Z AUTO 29005KT CAVOK 14/10 Q1014
  • 222030Z AUTO 29004KT CAVOK 15/10 Q1013
  • 222000Z AUTO 29005KT CAVOK 16/10 Q1013 NOSIG
  • 221930Z AUTO 29008KT CAVOK 16/10 Q1013 NOSIG

TAF TAF LFOP
Valid from the 22 at 18:00 until the 23 at 18:00 UTC


221700Z 2218/2318 28010KT CAVOK
PROB30 2218/2219 4000 TSRA BKN060CB
BECMG 2222/2224 OVC005
BECMG 2306/2308 SCT020
ATIS : +33 2 35 80 80 34
Met : +33 2 32 86 52 80
No reported NOTAMs for that airfield.





SOURCES & CREDITS :

   NOAA